createdAt,value
2023-05-03T00:02:22.267Z,101933.70
2023-05-03T00:04:54.696Z,101935.05
2023-05-03T00:07:25.872Z,101932.92
2023-05-03T00:09:54.185Z,101931.31
2023-05-03T00:12:25.697Z,101931.34
2023-05-03T00:14:54.133Z,101931.19
2023-05-03T00:17:22.716Z,101926.46
2023-05-03T00:19:55.886Z,101923.46
2023-05-03T00:22:24.307Z,101920.48
2023-05-03T00:24:52.889Z,101919.92
2023-05-03T00:27:21.337Z,101915.69
2023-05-03T00:29:52.522Z,101916.69
2023-05-03T00:32:25.333Z,101910.35
2023-05-03T00:34:55.212Z,101904.55
2023-05-03T00:37:26.348Z,101903.48
2023-05-03T00:39:54.748Z,101905.40
2023-05-03T00:42:24.280Z,101905.89
2023-05-03T00:44:53.988Z,101905.14
2023-05-03T00:47:24.078Z,101905.91
2023-05-03T00:49:52.595Z,101904.45
2023-05-03T00:52:20.960Z,101901.05
2023-05-03T00:54:49.498Z,101899.20
2023-05-03T00:57:17.845Z,101898.23
2023-05-03T00:59:46.864Z,101900.94
2023-05-03T01:02:18.319Z,101895.79
2023-05-03T01:04:47.972Z,101900.73
2023-05-03T01:07:35.937Z,101901.54
2023-05-03T01:10:47.221Z,101900.13
2023-05-03T01:13:35.515Z,101899.87
2023-05-03T01:16:21.185Z,101889.34
2023-05-03T01:22:42.805Z,101904.63
2023-05-03T01:25:13.259Z,101905.05
2023-05-03T01:27:42.686Z,101905.13
2023-05-03T01:30:12.842Z,101903.10
2023-05-03T01:33:03.637Z,101903.70
2023-05-03T01:35:53.002Z,101902.54
2023-05-03T01:38:22.784Z,101901.52
2023-05-03T01:40:59.457Z,101905.56
2023-05-03T01:43:31.614Z,101906.89
2023-05-03T01:46:00.311Z,101910.34
2023-05-03T01:48:28.764Z,101910.14
2023-05-03T01:50:58.648Z,101909.54
2023-05-03T01:53:27.665Z,101909.41
2023-05-03T01:55:56.319Z,101905.23
2023-05-03T01:58:24.900Z,101910.30
2023-05-03T02:00:55.085Z,101914.35
2023-05-03T02:03:23.700Z,101915.27
2023-05-03T02:05:52.185Z,101919.41
2023-05-03T02:08:20.791Z,101922.61
2023-05-03T02:10:49.255Z,101924.11
2023-05-03T02:13:18.001Z,101927.68
2023-05-03T02:15:46.470Z,101928.33
2023-05-03T02:18:16.606Z,101928.07
2023-05-03T02:20:46.551Z,101928.34
2023-05-03T02:23:14.947Z,101928.45
2023-05-03T02:25:43.422Z,101923.84
2023-05-03T02:28:12.518Z,101918.75
2023-05-03T02:30:44.194Z,101918.71
2023-05-03T02:33:12.832Z,101919.02
2023-05-03T02:35:41.541Z,101918.98
2023-05-03T02:38:10.431Z,101918.38
2023-05-03T02:44:30.780Z,101917.55
2023-05-03T02:47:00.364Z,101914.98
2023-05-03T02:49:29.630Z,101916.61
2023-05-03T02:51:58.450Z,101916.71
2023-05-03T02:54:26.982Z,101913.64
2023-05-03T02:56:55.904Z,101912.75
2023-05-03T02:59:24.475Z,101913.77
2023-05-03T03:01:52.907Z,101912.77
2023-05-03T03:04:21.616Z,101914.46
2023-05-03T03:06:50.105Z,101914.24
2023-05-03T03:09:18.489Z,101917.35
2023-05-03T03:11:47.445Z,101919.05
2023-05-03T03:14:17.023Z,101920.09
2023-05-03T03:16:46.702Z,101916.67
2023-05-03T03:19:15.336Z,101915.08
2023-05-03T03:21:43.645Z,101915.44
2023-05-03T03:24:12.115Z,101913.50
2023-05-03T03:26:40.757Z,101919.14
2023-05-03T03:29:12.031Z,101917.95
2023-05-03T03:31:42.144Z,101921.00
2023-05-03T03:34:14.030Z,101925.31
2023-05-03T03:36:42.465Z,101935.84
2023-05-03T03:39:11.769Z,101939.58
2023-05-03T03:41:41.478Z,101941.63
2023-05-03T03:44:10.316Z,101933.96
2023-05-03T03:46:39.594Z,101933.26
2023-05-03T03:49:08.365Z,101934.85
2023-05-03T03:51:37.513Z,101936.05
2023-05-03T03:54:06.438Z,101939.45
2023-05-03T03:56:35.810Z,101942.67
2023-05-03T03:59:04.168Z,101943.93
2023-05-03T04:01:32.688Z,101947.25
2023-05-03T04:04:02.024Z,101948.54
2023-05-03T04:06:33.460Z,101949.36
2023-05-03T04:09:04.530Z,101947.21
2023-05-03T04:11:35.198Z,101948.78
2023-05-03T04:14:04.694Z,101949.77
2023-05-03T04:16:33.785Z,101950.36
2023-05-03T04:19:03.825Z,101955.28
2023-05-03T04:21:33.013Z,101956.36
2023-05-03T04:24:06.138Z,101954.86
2023-05-03T04:26:35.355Z,101957.91
2023-05-03T04:29:14.863Z,101958.20
2023-05-03T04:31:43.667Z,101958.31
2023-05-03T04:34:16.277Z,101956.70
2023-05-03T04:36:46.858Z,101960.40
2023-05-03T04:39:15.844Z,101958.85
2023-05-03T04:41:45.973Z,101968.69
2023-05-03T04:44:14.955Z,101971.52
2023-05-03T04:46:44.931Z,101971.23
2023-05-03T04:49:13.869Z,101977.73
2023-05-03T04:51:42.562Z,101980.04
2023-05-03T04:54:11.264Z,101980.61
2023-05-03T04:56:40.077Z,101979.61
2023-05-03T04:59:16.290Z,101983.14
2023-05-03T05:01:45.212Z,101980.58
2023-05-03T05:04:14.174Z,101982.75
2023-05-03T05:06:46.575Z,101983.86
2023-05-03T05:09:24.253Z,101982.20
2023-05-03T05:11:57.222Z,101985.05
2023-05-03T05:14:28.646Z,101984.79
2023-05-03T05:16:58.495Z,101985.23
2023-05-03T05:19:27.732Z,101981.14
2023-05-03T05:21:56.906Z,101981.73
2023-05-03T05:24:28.846Z,101982.19
2023-05-03T05:26:57.575Z,101980.50
2023-05-03T05:29:26.325Z,101978.98
2023-05-03T05:31:55.144Z,101984.46
2023-05-03T05:34:23.895Z,101981.37
2023-05-03T05:36:53.399Z,101986.14
2023-05-03T05:40:15.917Z,101987.42
2023-05-03T05:42:48.907Z,101990.84
2023-05-03T05:45:18.659Z,101992.44
2023-05-03T05:47:47.718Z,101993.88
2023-05-03T05:50:18.800Z,101994.77
2023-05-03T05:52:54.636Z,101997.27
2023-05-03T05:55:24.037Z,102001.48
2023-05-03T05:57:53.197Z,102000.80
2023-05-03T06:00:24.702Z,102003.96
2023-05-03T06:02:53.291Z,102002.20
2023-05-03T06:05:23.861Z,102000.95
2023-05-03T06:07:52.645Z,102003.23
2023-05-03T06:10:21.587Z,101999.40
2023-05-03T06:12:53.567Z,101997.27
2023-05-03T06:15:26.557Z,101994.63
2023-05-03T06:17:55.217Z,101997.94
2023-05-03T06:20:25.362Z,101994.05
2023-05-03T06:22:54.436Z,101994.75
2023-05-03T06:25:24.643Z,101991.02
2023-05-03T06:27:53.851Z,101988.17
2023-05-03T06:30:26.032Z,101985.68
2023-05-03T06:32:55.046Z,101986.52
2023-05-03T06:35:24.781Z,101985.77
2023-05-03T06:37:53.409Z,101981.11
2023-05-03T06:40:25.079Z,101979.64
2023-05-03T06:42:53.790Z,101977.63
2023-05-03T06:45:33.618Z,101977.36
2023-05-03T06:48:02.702Z,101980.23
2023-05-03T06:50:31.584Z,101978.90
2023-05-03T06:53:00.263Z,101980.05
2023-05-03T06:55:29.053Z,101980.79
2023-05-03T06:57:57.629Z,101976.95
2023-05-03T07:00:26.662Z,101973.34
2023-05-03T07:02:55.289Z,101970.98
2023-05-03T07:05:23.843Z,101969.16
2023-05-03T07:07:52.062Z,101967.84
2023-05-03T07:10:20.499Z,101966.38
2023-05-03T07:12:48.981Z,101967.90
2023-05-03T07:15:17.709Z,101969.23
2023-05-03T07:17:46.251Z,101967.72
2023-05-03T07:20:14.761Z,101966.31
2023-05-03T07:22:43.321Z,101967.21
2023-05-03T07:25:12.637Z,101963.59
2023-05-03T07:27:40.958Z,101965.69
2023-05-03T07:30:09.806Z,101971.88
2023-05-03T07:32:38.354Z,101970.38
2023-05-03T07:35:08.003Z,101968.96
2023-05-03T07:37:38.727Z,101965.14
2023-05-03T07:40:12.060Z,101963.61
2023-05-03T07:42:40.715Z,101962.92
2023-05-03T07:45:10.026Z,101960.66
2023-05-03T07:47:40.373Z,101954.54
2023-05-03T07:50:09.619Z,101956.17
2023-05-03T07:52:39.271Z,101959.22
2023-05-03T07:55:08.331Z,101954.96
2023-05-03T07:57:36.864Z,101958.11
2023-05-03T08:00:08.481Z,101958.12
2023-05-03T08:02:41.549Z,101955.59
2023-05-03T08:05:14.238Z,101960.80
2023-05-03T08:07:43.052Z,101959.71
2023-05-03T08:10:13.382Z,101956.34
2023-05-03T08:12:42.269Z,101957.80
2023-05-03T08:15:10.748Z,101957.98
2023-05-03T08:17:44.750Z,101956.99
2023-05-03T08:20:13.735Z,101957.21
2023-05-03T08:22:42.768Z,101955.83
2023-05-03T08:25:12.511Z,101958.19
2023-05-03T08:27:40.884Z,101958.77
2023-05-03T08:30:09.937Z,101956.64
2023-05-03T08:32:38.464Z,101959.81
2023-05-03T08:35:09.256Z,101957.46
2023-05-03T08:37:39.837Z,101950.39
2023-05-03T08:40:11.766Z,101953.20
2023-05-03T08:42:44.767Z,101953.94
2023-05-03T08:45:16.165Z,101953.91
2023-05-03T08:47:45.844Z,101948.66
2023-05-03T08:50:16.049Z,101945.72
2023-05-03T08:52:44.665Z,101941.95
2023-05-03T08:55:13.479Z,101943.64
2023-05-03T08:57:41.856Z,101942.55
2023-05-03T09:00:11.353Z,101940.89
2023-05-03T09:02:40.482Z,101941.59
2023-05-03T09:05:39.233Z,101947.52
2023-05-03T09:08:10.606Z,101944.36
2023-05-03T09:10:41.272Z,101942.06
2023-05-03T09:13:10.994Z,101944.73
2023-05-03T09:15:40.082Z,101946.70
2023-05-03T09:18:20.179Z,101944.65
2023-05-03T09:20:53.332Z,101940.79
2023-05-03T09:23:28.942Z,101934.34
2023-05-03T09:25:58.664Z,101940.41
2023-05-03T09:28:27.858Z,101935.20
2023-05-03T09:31:07.741Z,101933.86
2023-05-03T09:33:36.466Z,101927.26
2023-05-03T09:36:06.040Z,101926.95
2023-05-03T09:38:38.904Z,101925.48
2023-05-03T09:41:07.650Z,101923.34
2023-05-03T09:43:36.408Z,101922.81
2023-05-03T09:46:14.594Z,101923.58
2023-05-03T09:48:43.769Z,101931.94
2023-05-03T09:51:13.423Z,101926.44
2023-05-03T09:53:42.134Z,101928.33
2023-05-03T09:56:15.099Z,101926.63
2023-05-03T09:58:44.359Z,101926.05
2023-05-03T10:01:15.352Z,101926.72
2023-05-03T10:03:57.684Z,101926.66
2023-05-03T10:06:35.647Z,101924.52
2023-05-03T10:09:21.009Z,101920.06
2023-05-03T10:11:54.111Z,101913.44
2023-05-03T10:14:23.259Z,101911.17
2023-05-03T10:16:59.436Z,101909.33
2023-05-03T10:19:46.497Z,101909.98
2023-05-03T10:22:15.212Z,101915.23
2023-05-03T10:25:07.905Z,101912.27
2023-05-03T10:27:45.581Z,101913.82
2023-05-03T10:30:26.255Z,101908.96
2023-05-03T10:32:55.330Z,101911.73
2023-05-03T10:35:28.248Z,101909.82
2023-05-03T10:37:57.384Z,101905.00
2023-05-03T10:40:42.252Z,101899.07
2023-05-03T10:43:29.459Z,101897.73
2023-05-03T10:46:05.713Z,101896.96
2023-05-03T10:48:35.370Z,101884.89
2023-05-03T10:51:39.086Z,101892.15
2023-05-03T10:54:07.853Z,101882.30
2023-05-03T10:56:48.311Z,101878.01
2023-05-03T10:59:17.212Z,101874.40
2023-05-03T11:01:49.030Z,101863.94
2023-05-03T11:04:32.841Z,101868.07
2023-05-03T11:07:02.343Z,101865.09
2023-05-03T11:09:32.783Z,101865.02
2023-05-03T11:12:06.191Z,101865.08
2023-05-03T11:14:34.796Z,101865.77
2023-05-03T11:17:03.219Z,101859.85
2023-05-03T11:19:31.901Z,101860.89
2023-05-03T11:22:02.381Z,101861.39
2023-05-03T11:24:30.754Z,101856.15
2023-05-03T11:26:59.272Z,101851.21
2023-05-03T11:29:28.045Z,101850.66
2023-05-03T11:31:56.855Z,101848.94
2023-05-03T11:34:27.471Z,101848.48
2023-05-03T11:36:57.870Z,101848.80
2023-05-03T11:39:28.734Z,101852.17
2023-05-03T11:42:04.766Z,101849.16
2023-05-03T11:44:33.209Z,101843.89
2023-05-03T11:47:02.859Z,101843.23
2023-05-03T11:49:31.534Z,101841.83
2023-05-03T11:52:00.531Z,101844.30
2023-05-03T11:54:31.140Z,101834.72
2023-05-03T11:57:00.083Z,101833.08
2023-05-03T11:59:37.264Z,101832.54
2023-05-03T12:02:07.950Z,101831.45
2023-05-03T12:04:48.083Z,101828.98
2023-05-03T12:07:19.311Z,101829.02
2023-05-03T12:10:05.818Z,101826.99
2023-05-03T12:12:46.048Z,101827.05
2023-05-03T12:15:33.387Z,101826.17
2023-05-03T12:18:06.328Z,101822.27
2023-05-03T12:23:15.311Z,101816.19
2023-05-03T12:25:45.364Z,101812.55
2023-05-03T12:28:19.799Z,101812.25
2023-05-03T12:30:53.298Z,101806.90
2023-05-03T12:33:23.179Z,101803.41
2023-05-03T12:35:54.232Z,101805.02
2023-05-03T12:38:24.598Z,101801.62
2023-05-03T12:40:55.619Z,101793.27
2023-05-03T12:43:24.742Z,101790.06
2023-05-03T12:49:46.433Z,101785.83
2023-05-03T12:52:35.387Z,101784.96
2023-05-03T12:55:11.333Z,101784.17
2023-05-03T12:57:42.469Z,101786.58
2023-05-03T13:00:17.610Z,101785.97
2023-05-03T13:05:35.412Z,101778.66
2023-05-03T13:10:36.494Z,101773.08
2023-05-03T13:13:05.406Z,101773.47
2023-05-03T13:15:36.052Z,101766.47
2023-05-03T13:18:08.327Z,101767.44
2023-05-03T13:20:37.836Z,101764.51
2023-05-03T13:23:06.384Z,101756.95
2023-05-03T13:25:35.388Z,101756.45
2023-05-03T13:28:04.062Z,101755.07
2023-05-03T13:30:32.546Z,101753.60
2023-05-03T13:33:01.459Z,101751.55
2023-05-03T13:35:30.537Z,101747.48
2023-05-03T13:37:59.644Z,101747.05
2023-05-03T13:40:28.785Z,101746.10
2023-05-03T13:42:59.209Z,101747.46
2023-05-03T13:45:27.624Z,101743.92
2023-05-03T13:48:15.705Z,101741.84
2023-05-03T13:50:45.273Z,101741.42
2023-05-03T13:53:14.170Z,101740.52
2023-05-03T13:55:43.050Z,101740.59
2023-05-03T13:58:11.533Z,101743.19
2023-05-03T14:00:40.264Z,101739.43
2023-05-03T14:03:09.326Z,101739.17
2023-05-03T14:05:38.130Z,101736.11
2023-05-03T14:08:06.827Z,101736.41
2023-05-03T14:10:36.027Z,101734.89
2023-05-03T14:13:04.682Z,101738.77
2023-05-03T14:15:33.828Z,101737.36
2023-05-03T14:18:05.406Z,101738.83
2023-05-03T14:20:35.425Z,101738.39
2023-05-03T14:23:04.432Z,101731.92
2023-05-03T14:25:32.987Z,101732.13
2023-05-03T14:28:02.416Z,101735.73
2023-05-03T14:30:32.132Z,101740.22
2023-05-03T14:33:00.675Z,101738.56
2023-05-03T14:35:29.293Z,101737.61
2023-05-03T14:37:58.178Z,101737.80
2023-05-03T14:40:26.552Z,101741.20
2023-05-03T14:42:55.347Z,101739.38
2023-05-03T14:45:24.341Z,101738.84
2023-05-03T14:47:52.857Z,101741.63
2023-05-03T14:50:22.765Z,101741.45
2023-05-03T14:52:51.849Z,101738.96
2023-05-03T14:55:20.360Z,101739.15
2023-05-03T14:57:49.121Z,101737.98
2023-05-03T15:00:18.576Z,101737.46
2023-05-03T15:02:47.574Z,101736.02
2023-05-03T15:05:16.515Z,101736.33
2023-05-03T15:07:45.071Z,101740.59
2023-05-03T15:10:13.667Z,101737.70
2023-05-03T15:12:42.554Z,101743.48
2023-05-03T15:15:12.260Z,101745.39
2023-05-03T15:17:40.926Z,101749.24
2023-05-03T15:20:10.786Z,101747.05
2023-05-03T15:22:39.651Z,101749.83
2023-05-03T15:25:08.947Z,101744.59
2023-05-03T15:27:37.456Z,101744.46
2023-05-03T15:30:07.972Z,101744.75
2023-05-03T15:32:40.391Z,101740.27
2023-05-03T15:35:09.825Z,101742.54
2023-05-03T15:37:39.429Z,101740.61
2023-05-03T15:40:10.816Z,101739.30
2023-05-03T15:42:39.755Z,101740.39
2023-05-03T15:45:10.702Z,101736.36
2023-05-03T15:47:39.758Z,101736.49
2023-05-03T15:50:10.025Z,101729.62
2023-05-03T15:52:38.735Z,101730.61
2023-05-03T15:55:09.604Z,101729.27
2023-05-03T15:57:38.651Z,101723.81
2023-05-03T16:00:09.512Z,101728.21
2023-05-03T16:02:38.428Z,101725.79
2023-05-03T16:05:07.808Z,101729.36
2023-05-03T16:07:36.702Z,101728.78
2023-05-03T16:10:06.730Z,101727.45
2023-05-03T16:12:35.711Z,101727.92
2023-05-03T16:15:05.649Z,101721.46
2023-05-03T16:17:37.185Z,101726.40
2023-05-03T16:20:09.387Z,101725.63
2023-05-03T16:22:38.607Z,101725.53
2023-05-03T16:25:13.595Z,101729.84
2023-05-03T16:27:42.379Z,101731.62
2023-05-03T16:30:11.320Z,101729.33
2023-05-03T16:32:40.996Z,101735.64
2023-05-03T16:35:09.965Z,101734.74
2023-05-03T16:37:39.249Z,101734.84
2023-05-03T16:40:11.769Z,101733.70
2023-05-03T16:42:42.908Z,101738.58
2023-05-03T16:45:12.248Z,101741.91
2023-05-03T16:47:40.561Z,101735.46
2023-05-03T16:50:10.100Z,101734.33
2023-05-03T16:52:40.771Z,101736.79
2023-05-03T16:55:10.993Z,101735.23
2023-05-03T16:57:40.179Z,101736.67
2023-05-03T17:00:11.963Z,101738.79
2023-05-03T17:02:41.745Z,101737.89
2023-05-03T17:05:12.970Z,101736.30
2023-05-03T17:07:43.318Z,101734.20
2023-05-03T17:10:13.139Z,101735.39
2023-05-03T17:12:41.842Z,101734.70
2023-05-03T17:15:11.545Z,101735.40
2023-05-03T17:17:40.659Z,101735.71
2023-05-03T17:20:11.144Z,101734.13
2023-05-03T17:22:39.866Z,101733.91
2023-05-03T17:25:09.970Z,101730.02
2023-05-03T17:27:38.508Z,101731.00
2023-05-03T17:30:09.746Z,101730.80
2023-05-03T17:32:38.449Z,101732.31
2023-05-03T17:35:07.551Z,101732.05
2023-05-03T17:37:36.348Z,101736.34
2023-05-03T17:40:07.588Z,101734.31
2023-05-03T17:42:36.293Z,101738.63
2023-05-03T17:45:05.699Z,101737.84
2023-05-03T17:47:34.183Z,101735.98
2023-05-03T17:50:02.917Z,101735.67
2023-05-03T17:52:31.434Z,101740.69
2023-05-03T17:55:00.228Z,101743.04
2023-05-03T17:57:28.915Z,101744.70
2023-05-03T17:59:59.955Z,101749.17
2023-05-03T18:02:28.718Z,101750.60
2023-05-03T18:05:00.902Z,101751.88
2023-05-03T18:07:29.829Z,101752.98
2023-05-03T18:09:59.938Z,101755.32
2023-05-03T18:12:28.954Z,101753.27
2023-05-03T18:15:00.849Z,101752.81
2023-05-03T18:17:30.213Z,101758.70
2023-05-03T18:20:02.183Z,101762.46
2023-05-03T18:22:31.254Z,101761.81
2023-05-03T18:25:02.111Z,101764.48
2023-05-03T18:27:30.964Z,101764.19
2023-05-03T18:30:01.040Z,101765.98
2023-05-03T18:32:29.698Z,101770.99
2023-05-03T18:35:00.906Z,101774.61
2023-05-03T18:37:29.706Z,101773.65
2023-05-03T18:39:58.424Z,101780.28
2023-05-03T18:42:27.679Z,101784.83
2023-05-03T18:44:58.003Z,101790.21
2023-05-03T18:47:26.627Z,101789.23
2023-05-03T18:49:55.187Z,101792.17
2023-05-03T18:52:24.301Z,101792.45
2023-05-03T18:54:52.852Z,101794.15
2023-05-03T18:57:21.443Z,101800.08
2023-05-03T19:00:00.125Z,101797.92
2023-05-03T19:02:31.724Z,101799.41
2023-05-03T19:05:01.327Z,101798.65
2023-05-03T19:07:30.118Z,101795.06
2023-05-03T19:09:58.682Z,101796.73
2023-05-03T19:12:27.085Z,101801.23
2023-05-03T19:14:55.854Z,101799.57
2023-05-03T19:17:24.470Z,101802.27
2023-05-03T19:19:53.146Z,101803.39
2023-05-03T19:22:21.915Z,101806.74
2023-05-03T19:24:50.287Z,101807.61
2023-05-03T19:27:19.096Z,101807.10
2023-05-03T19:29:47.671Z,101814.15
2023-05-03T19:32:16.869Z,101814.34
2023-05-03T19:34:45.355Z,101812.77
2023-05-03T19:37:14.347Z,101813.14
2023-05-03T19:39:47.786Z,101818.06
2023-05-03T19:42:25.568Z,101818.27
2023-05-03T19:45:02.592Z,101821.63
2023-05-03T19:47:31.855Z,101823.02
2023-05-03T19:50:00.389Z,101822.66
2023-05-03T19:52:28.893Z,101825.66
2023-05-03T19:54:57.976Z,101829.20
2023-05-03T19:57:27.748Z,101828.69
2023-05-03T19:59:56.430Z,101834.16
2023-05-03T20:02:25.303Z,101837.73
2023-05-03T20:04:53.951Z,101829.52
2023-05-03T20:07:23.755Z,101827.80
2023-05-03T20:09:52.711Z,101825.94
2023-05-03T20:12:21.124Z,101825.46
2023-05-03T20:14:49.725Z,101825.17
2023-05-03T20:17:24.807Z,101827.69
2023-05-03T20:19:56.518Z,101827.23
2023-05-03T20:22:26.617Z,101826.77
2023-05-03T20:24:55.305Z,101834.67
2023-05-03T20:27:23.996Z,101832.44
2023-05-03T20:29:52.948Z,101833.02
2023-05-03T20:32:21.934Z,101826.75
2023-05-03T20:34:54.714Z,101827.30
2023-05-03T20:37:31.976Z,101821.04
2023-05-03T20:40:00.438Z,101821.61
2023-05-03T20:42:29.142Z,101820.77
2023-05-03T20:44:57.668Z,101824.64
2023-05-03T20:47:26.582Z,101831.48
2023-05-03T20:49:55.190Z,101829.93
2023-05-03T20:52:23.863Z,101839.23
2023-05-03T20:54:52.637Z,101843.45
2023-05-03T20:57:21.141Z,101845.24
2023-05-03T20:59:51.060Z,101848.59
2023-05-03T21:02:19.583Z,101851.94
2023-05-03T21:04:48.416Z,101851.61
2023-05-03T21:07:17.513Z,101851.10
2023-05-03T21:09:46.112Z,101852.31
2023-05-03T21:12:14.972Z,101848.80
2023-05-03T21:14:43.659Z,101848.63
2023-05-03T21:17:12.568Z,101853.35
2023-05-03T21:19:41.031Z,101853.85
2023-05-03T21:22:09.841Z,101860.34
2023-05-03T21:24:38.637Z,101864.53
2023-05-03T21:27:07.298Z,101867.35
2023-05-03T21:29:35.785Z,101868.20
2023-05-03T21:32:04.973Z,101871.17
2023-05-03T21:34:33.360Z,101880.28
2023-05-03T21:37:02.241Z,101891.52
2023-05-03T21:39:31.176Z,101894.87
2023-05-03T21:41:59.925Z,101894.36
2023-05-03T21:44:28.612Z,101896.30
2023-05-03T21:46:57.148Z,101896.86
2023-05-03T21:49:27.015Z,101901.45
2023-05-03T21:51:55.563Z,101899.00
2023-05-03T21:54:24.072Z,101899.90
2023-05-03T21:56:52.651Z,101890.98
2023-05-03T21:59:21.428Z,101891.52
2023-05-03T22:01:50.599Z,101897.15
2023-05-03T22:04:20.098Z,101893.30
2023-05-03T22:06:49.132Z,101893.32
2023-05-03T22:09:17.769Z,101897.20
2023-05-03T22:11:46.916Z,101894.05
2023-05-03T22:14:15.416Z,101890.21
2023-05-03T22:16:44.101Z,101889.18
2023-05-03T22:19:12.564Z,101887.63
2023-05-03T22:21:43.900Z,101886.23
2023-05-03T22:24:13.641Z,101883.61
2023-05-03T22:26:42.513Z,101883.63
2023-05-03T22:29:11.030Z,101882.77
2023-05-03T22:31:39.729Z,101882.61
2023-05-03T22:34:08.366Z,101883.85
2023-05-03T22:36:36.846Z,101886.81
2023-05-03T22:39:06.252Z,101889.96
2023-05-03T22:41:35.061Z,101892.42
2023-05-03T22:44:03.924Z,101898.76
2023-05-03T22:46:32.503Z,101894.91
2023-05-03T22:49:01.108Z,101901.91
2023-05-03T22:51:29.782Z,101899.13
2023-05-03T22:53:58.537Z,101899.13
2023-05-03T22:56:27.455Z,101899.66
2023-05-03T22:58:57.490Z,101896.00
2023-05-03T23:01:27.138Z,101899.31
2023-05-03T23:03:56.101Z,101900.91
2023-05-03T23:06:25.301Z,101898.46
2023-05-03T23:08:53.870Z,101894.27
2023-05-03T23:11:23.064Z,101886.74
2023-05-03T23:13:51.851Z,101881.15
2023-05-03T23:16:21.724Z,101869.96
2023-05-03T23:18:50.639Z,101863.51
2023-05-03T23:21:19.222Z,101858.09
2023-05-03T23:23:48.024Z,101850.23
2023-05-03T23:26:16.814Z,101853.20
2023-05-03T23:28:46.511Z,101849.70
2023-05-03T23:31:16.340Z,101846.02
2023-05-03T23:33:45.321Z,101849.01
2023-05-03T23:36:14.698Z,101845.33
2023-05-03T23:38:43.144Z,101848.83
2023-05-03T23:41:12.196Z,101855.65
2023-05-03T23:43:40.985Z,101857.40
2023-05-03T23:46:09.417Z,101860.20
2023-05-03T23:48:37.959Z,101858.09
2023-05-03T23:51:06.332Z,101850.39
2023-05-03T23:53:34.819Z,101833.27
2023-05-03T23:56:04.213Z,101829.95
2023-05-03T23:58:33.609Z,101833.80
